Enterprise, MS (39330)

7:31 AM CDT on October 02, 2014 (GMT -0500)
JRHC - Snell | Change Station
CLOSE
Current Station
Personal Weather Station
Location: Snell, MS
Elevation: 427 ft
Nearby Weather Stations

Elev 427 ft 32.19 °N, 88.50 °W | Updated 1 second ago

Overcast
Overcast
72.3 °F
Feels Like 72.3 °F
N
0.0
Wind Variable Wind from East
Gusts 0.0 mph

Today
High -- | Low -- °F
--% Chance of Precip.
Yesterday
High -- | Low -- °F
Precip. -- in
6:49 AM 6:38 PM
First Quarter, 58% visible
Pressure 29.99 in
Visibility 10.0 miles
Clouds Overcast 600 ft
Dew Point 71 °F
Humidity 95%
Rainfall 0.00 in
Snow Depth Not available.
UV 0 out of 12
Pollen 6.80 out of 12
Air Quality Not available.
Flu Activity Not available.
METAR KMEI 021158Z 19004KT 10SM OVC006 23/22 A3000 RMK AO2 SLP155 T02280217 10228 20200 53009

More Conditions Fewer Conditions

Pressure 29.99 in
Visibility 10.0 miles
Clouds Overcast 600 ft
Dew Point 71 °F
Humidity 95%
Rainfall 0.00 in
Snow Depth Not available.
UV 0 out of 12
Pollen 6.80 out of 12
Air Quality Not available.
Flu Activity Not available.
METAR KMEI 021158Z 19004KT 10SM OVC006 23/22 A3000 RMK AO2 SLP155 T02280217 10228 20200 53009

More Conditions Fewer Conditions

10-Day Weather Forecast

Almanac

Astronomy

Oct. 02, 2014 Rise Set
Actual Time 6:49 AM CDT 6:38 PM CDT
Civil Twilight 6:25 AM CDT 7:02 PM CDT
Nautical Twilight 5:56 AM CDT 7:31 PM CDT
Astronomical Twilight 5:28 AM CDT 7:59 PM CDT
Moon 2:26 PM CDT 12:25 AM CDT
Length of Visible Light 12h 37m
Length of Day
11h 48m
Tomorrow will be 1m 57s shorter.
First Quarter, 58% of the Moon is Illuminated
Today
First Quarter
Oct 8
Full
Oct 15
Last Quarter
Oct 23
New
Oct 30
First Quarter

Today's Extremes

State Highs State Lows

Community

WunderPhotos

Upload Photos

1,758,223 photos uploaded!

WunderBlogs® & News

Nearby

Snow Depth

Station Depth Elevation
No new snow has been reported.

Earthquake Activity

City Distance Mag. Time & Date
No recent earthquake activity has been reported nearby.
Minimum magnitude displayed is 2.5.

Coastal Water Temperatures

Place Temperature
No Stations Reporting

Nearby Weather Stations